Time;durP1;ratioP1;P1;durP2;ratioP2;P2;SDS_P1;SDS_P2;PMS_P1;PMS_P2;Temp;Humidity;BMP_temperature;BMP_pressure;BME280_temperature;BME280_humidity;BME280_pressure;Samples;Min_cycle;Max_cycle;Signal;HPM_P1;HPM_P2
2023/11/01 00:02:14;;;;;;;0.40;0.20;;;11.00;99.90;;;;;;5131999;27;20700;-58
2023/11/01 00:04:41;;;;;;;0.50;0.20;;;10.90;99.90;;;;;;5131175;27;20440;-58
2023/11/01 00:07:08;;;;;;;0.50;0.20;;;10.90;99.90;;;;;;5132337;27;20419;-59
2023/11/01 00:09:35;;;;;;;1.10;0.28;;;11.00;99.90;;;;;;5131661;27;20488;-58
2023/11/01 00:12:02;;;;;;;0.50;0.30;;;11.10;99.90;;;;;;5132414;27;20871;-58
2023/11/01 00:14:29;;;;;;;0.90;0.30;;;11.10;99.90;;;;;;5131941;27;20822;-58
2023/11/01 00:16:58;;;;;;;0.50;0.30;;;11.10;99.90;;;;;;5132136;27;21012;-58
2023/11/01 00:19:25;;;;;;;1.20;0.28;;;11.10;99.90;;;;;;5132653;27;20546;-59
2023/11/01 00:21:51;;;;;;;0.50;0.30;;;11.10;99.90;;;;;;5132990;27;20467;-58
2023/11/01 00:24:18;;;;;;;2.00;0.30;;;11.00;99.90;;;;;;5134840;27;20471;-58
2023/11/01 00:26:45;;;;;;;0.43;0.20;;;11.00;99.90;;;;;;5137116;27;20475;-59
2023/11/01 00:29:12;;;;;;;0.55;0.20;;;10.90;99.90;;;;;;5134415;27;20426;-59
2023/11/01 00:31:39;;;;;;;0.50;0.20;;;11.00;99.90;;;;;;5115991;27;20481;-59
2023/11/01 00:34:08;;;;;;;0.40;0.20;;;11.00;99.90;;;;;;5125434;27;20418;-59
2023/11/01 00:36:35;;;;;;;0.70;0.27;;;11.10;99.90;;;;;;5128227;27;20723;-59
2023/11/01 00:39:02;;;;;;;1.50;0.30;;;11.10;99.90;;;;;;5125232;27;20434;-59
2023/11/01 00:41:29;;;;;;;0.60;0.30;;;11.00;99.90;;;;;;5137433;27;20715;-61
2023/11/01 00:43:56;;;;;;;0.90;0.22;;;10.90;99.90;;;;;;5135149;27;20545;-59
2023/11/01 00:46:23;;;;;;;0.90;0.28;;;10.80;99.90;;;;;;5136247;27;20470;-60
2023/11/01 00:48:50;;;;;;;0.40;0.20;;;10.70;99.90;;;;;;5137507;27;20826;-58
2023/11/01 00:51:19;;;;;;;0.65;0.30;;;10.70;99.90;;;;;;5137866;27;20454;-58
2023/11/01 00:53:45;;;;;;;0.60;0.20;;;10.70;99.90;;;;;;5137914;27;20422;-58
2023/11/01 00:56:12;;;;;;;0.70;0.30;;;10.70;99.90;;;;;;5138226;27;20497;-58
2023/11/01 00:58:39;;;;;;;1.08;0.30;;;10.70;99.90;;;;;;5137889;27;20435;-58
2023/11/01 01:01:06;;;;;;;1.80;0.20;;;10.70;99.90;;;;;;5121674;27;20432;-58
2023/11/01 01:03:33;;;;;;;0.60;0.20;;;10.80;99.90;;;;;;5129468;27;20428;-58
2023/11/01 01:06:01;;;;;;;0.65;0.20;;;10.70;99.90;;;;;;5124662;27;20493;-58
2023/11/01 01:08:30;;;;;;;0.80;0.20;;;10.80;99.90;;;;;;5116367;28;20494;-58
2023/11/01 01:10:57;;;;;;;0.50;0.30;;;10.80;99.90;;;;;;5116523;28;20420;-59
2023/11/01 01:13:24;;;;;;;0.43;0.20;;;10.80;99.90;;;;;;5115709;28;20420;-58
2023/11/01 01:15:51;;;;;;;2.60;0.30;;;10.80;99.90;;;;;;5116067;28;20766;-59
2023/11/01 01:18:20;;;;;;;0.50;0.30;;;10.80;99.90;;;;;;5114980;28;20428;-58
2023/11/01 01:20:47;;;;;;;0.50;0.20;;;10.80;99.90;;;;;;5116105;28;20424;-58
2023/11/01 01:23:14;;;;;;;0.40;0.20;;;10.90;99.90;;;;;;5117405;28;20449;-58
2023/11/01 01:25:43;;;;;;;0.57;0.30;;;10.80;99.90;;;;;;5117518;28;20428;-57
2023/11/01 01:28:10;;;;;;;0.50;0.20;;;10.80;99.90;;;;;;5116689;28;20424;-58
2023/11/01 01:30:37;;;;;;;0.50;0.30;;;10.80;99.90;;;;;;5120641;27;20467;-59
2023/11/01 01:33:04;;;;;;;0.50;0.20;;;10.80;99.90;;;;;;5117622;27;20477;-58
2023/11/01 01:35:31;;;;;;;1.80;0.30;;;10.70;99.90;;;;;;5131438;27;20493;-58
2023/11/01 01:37:58;;;;;;;0.50;0.28;;;10.80;99.90;;;;;;5121340;27;20775;-58
2023/11/01 01:40:25;;;;;;;0.50;0.30;;;10.80;99.90;;;;;;5137340;27;20414;-58
2023/11/01 01:42:53;;;;;;;0.70;0.30;;;10.80;99.90;;;;;;5137353;27;20467;-58
2023/11/01 01:45:20;;;;;;;0.60;0.20;;;10.70;99.90;;;;;;5137436;27;20467;-58
2023/11/01 01:47:48;;;;;;;0.80;0.20;;;10.80;99.90;;;;;;5137954;27;20895;-58
2023/11/01 01:50:15;;;;;;;0.40;0.28;;;10.70;99.90;;;;;;5137797;27;20418;-58
2023/11/01 01:52:43;;;;;;;1.20;0.30;;;10.70;99.90;;;;;;5137924;27;20459;-58
2023/11/01 01:55:10;;;;;;;1.02;0.20;;;10.70;99.90;;;;;;5136941;27;20427;-58
2023/11/01 01:57:38;;;;;;;1.00;0.40;;;10.70;99.90;;;;;;5137476;27;20414;-58
2023/11/01 02:00:08;;;;;;;0.50;0.20;;;10.70;99.90;;;;;;5137057;27;20430;-59
2023/11/01 02:02:35;;;;;;;0.50;0.20;;;10.80;99.90;;;;;;5136959;27;20447;-58
2023/11/01 02:05:06;;;;;;;0.60;0.20;;;10.80;99.90;;;;;;5129013;27;20461;-58
2023/11/01 02:07:33;;;;;;;0.60;0.30;;;10.80;99.90;;;;;;5128791;27;20729;-59
2023/11/01 02:10:01;;;;;;;0.90;0.20;;;10.80;99.90;;;;;;5119258;27;20407;-58
2023/11/01 02:12:28;;;;;;;0.60;0.25;;;10.80;99.90;;;;;;5134689;27;20873;-58
2023/11/01 02:14:55;;;;;;;0.40;0.20;;;10.80;99.90;;;;;;5135215;27;20894;-58
2023/11/01 02:17:23;;;;;;;0.40;0.20;;;10.80;99.90;;;;;;5124167;27;20473;-58
2023/11/01 02:19:50;;;;;;;0.50;0.30;;;10.80;99.90;;;;;;5115414;28;20431;-58
2023/11/01 02:22:17;;;;;;;0.63;0.20;;;10.80;99.90;;;;;;5114250;28;20438;-59
2023/11/01 02:24:45;;;;;;;0.68;0.30;;;10.80;99.90;;;;;;5115871;28;20416;-58
2023/11/01 02:27:12;;;;;;;0.47;0.20;;;10.80;99.90;;;;;;5116393;28;20474;-58
2023/11/01 02:29:39;;;;;;;0.50;0.20;;;10.80;99.90;;;;;;5114694;28;20426;-58
2023/11/01 02:32:08;;;;;;;0.63;0.25;;;10.80;99.90;;;;;;5114146;28;20428;-58
2023/11/01 02:34:35;;;;;;;0.40;0.20;;;10.80;99.90;;;;;;5130260;27;20446;-58
2023/11/01 02:37:03;;;;;;;0.47;0.20;;;10.70;99.90;;;;;;5132067;27;20549;-59
2023/11/01 02:39:30;;;;;;;0.60;0.20;;;10.60;99.90;;;;;;5110338;28;20853;-58
2023/11/01 02:41:59;;;;;;;0.40;0.20;;;10.60;99.90;;;;;;5112866;28;20423;-59
2023/11/01 02:44:26;;;;;;;0.70;0.20;;;10.70;99.90;;;;;;5112989;28;20463;-58
2023/11/01 02:46:53;;;;;;;0.85;0.20;;;10.60;99.90;;;;;;5112885;28;20430;-59
2023/11/01 02:49:20;;;;;;;0.88;0.22;;;10.60;99.90;;;;;;5115258;28;20846;-58
2023/11/01 02:51:47;;;;;;;1.30;0.20;;;10.60;99.90;;;;;;5115958;28;20412;-58
2023/11/01 02:54:14;;;;;;;0.50;0.20;;;10.60;99.90;;;;;;5116257;28;20505;-58
2023/11/01 02:56:41;;;;;;;1.10;0.20;;;10.60;99.90;;;;;;5115862;28;20424;-58
2023/11/01 02:59:10;;;;;;;0.40;0.20;;;10.50;99.90;;;;;;5115016;28;20462;-59
2023/11/01 03:01:37;;;;;;;1.10;0.30;;;10.60;99.90;;;;;;5115433;28;20427;-58
2023/11/01 03:04:04;;;;;;;0.40;0.20;;;10.60;99.90;;;;;;5115836;28;20477;-59
2023/11/01 03:06:31;;;;;;;1.20;0.30;;;10.60;99.90;;;;;;5114372;28;20863;-59
2023/11/01 03:08:58;;;;;;;0.60;0.28;;;10.60;99.90;;;;;;5114853;28;20489;-58
2023/11/01 03:11:25;;;;;;;0.40;0.20;;;10.60;99.90;;;;;;5113093;28;20477;-58
2023/11/01 03:13:52;;;;;;;0.40;0.20;;;10.50;99.90;;;;;;5122786;27;20476;-59
2023/11/01 03:16:20;;;;;;;1.60;0.30;;;10.50;99.90;;;;;;5131172;27;20703;-58
2023/11/01 03:18:47;;;;;;;0.50;0.20;;;10.50;99.90;;;;;;5135989;27;20418;-59
2023/11/01 03:21:14;;;;;;;2.90;0.30;;;10.50;99.90;;;;;;5117558;27;20412;-59
2023/11/01 03:23:41;;;;;;;1.10;0.30;;;10.60;99.90;;;;;;5115071;28;20484;-59
2023/11/01 03:26:09;;;;;;;1.40;0.30;;;10.60;99.90;;;;;;5113805;28;20416;-59
2023/11/01 03:28:36;;;;;;;2.10;0.20;;;10.60;99.90;;;;;;5114348;28;20488;-59
2023/11/01 03:31:03;;;;;;;0.50;0.20;;;10.70;99.90;;;;;;5115192;28;20420;-59
2023/11/01 03:33:31;;;;;;;1.20;0.30;;;10.70;99.90;;;;;;5114888;28;20416;-59
2023/11/01 03:35:58;;;;;;;0.50;0.20;;;10.60;99.90;;;;;;5112917;28;20469;-59
2023/11/01 03:38:25;;;;;;;0.40;0.20;;;10.60;99.90;;;;;;5112992;28;20844;-58
2023/11/01 03:40:52;;;;;;;0.70;0.30;;;10.60;99.90;;;;;;5113306;28;20431;-59
2023/11/01 03:43:19;;;;;;;1.73;0.30;;;10.60;99.90;;;;;;5113698;27;20462;-58
2023/11/01 03:45:46;;;;;;;1.00;0.20;;;10.60;99.90;;;;;;5111404;28;20416;-59
2023/11/01 03:48:13;;;;;;;1.20;0.20;;;10.60;99.90;;;;;;5113862;27;20481;-58
2023/11/01 03:50:41;;;;;;;0.47;0.20;;;10.60;99.90;;;;;;5132997;27;20424;-59
2023/11/01 03:53:08;;;;;;;0.50;0.20;;;10.60;99.90;;;;;;5133149;27;20426;-58
2023/11/01 03:55:35;;;;;;;0.50;0.20;;;10.50;99.90;;;;;;5113026;28;20424;-59
2023/11/01 03:58:02;;;;;;;0.70;0.20;;;10.50;99.90;;;;;;5114174;28;20436;-59
2023/11/01 04:00:29;;;;;;;0.40;0.20;;;10.50;99.90;;;;;;5118687;28;20428;-58
2023/11/01 04:02:56;;;;;;;0.50;0.20;;;10.50;99.90;;;;;;5118907;28;20458;-59
2023/11/01 04:05:23;;;;;;;1.48;0.20;;;10.50;99.90;;;;;;5118626;28;20419;-59
2023/11/01 04:07:51;;;;;;;2.00;0.20;;;10.40;99.90;;;;;;5118666;28;20420;-58
2023/11/01 04:10:19;;;;;;;0.40;0.20;;;10.40;99.90;;;;;;5118912;28;20762;-59
2023/11/01 04:12:46;;;;;;;0.50;0.20;;;10.40;99.90;;;;;;5118333;27;20481;-59
2023/11/01 04:15:13;;;;;;;0.70;0.20;;;10.40;99.90;;;;;;5119414;27;20782;-58
2023/11/01 04:17:40;;;;;;;0.60;0.20;;;10.40;99.90;;;;;;5125152;27;20422;-59
2023/11/01 04:20:09;;;;;;;1.80;0.20;;;10.40;99.90;;;;;;5133433;27;20451;-58
2023/11/01 04:22:36;;;;;;;0.47;0.20;;;10.40;99.90;;;;;;5135696;27;20469;-58
2023/11/01 04:25:06;;;;;;;0.50;0.20;;;10.40;99.90;;;;;;5130244;27;20444;-58
2023/11/01 04:27:39;;;;;;;0.75;0.30;;;10.40;99.90;;;;;;5117162;28;20869;-58
2023/11/01 04:30:08;;;;;;;0.50;0.20;;;10.40;99.90;;;;;;5119183;28;20420;-59
2023/11/01 04:32:35;;;;;;;0.50;0.20;;;10.40;99.90;;;;;;5118245;28;20463;-58
2023/11/01 04:35:02;;;;;;;1.40;0.20;;;10.40;99.90;;;;;;5117459;28;20846;-58
2023/11/01 04:37:29;;;;;;;0.38;0.20;;;10.40;99.90;;;;;;5117325;28;20420;-58
2023/11/01 04:39:56;;;;;;;0.40;0.20;;;10.30;99.90;;;;;;5117294;28;20424;-58
2023/11/01 04:42:25;;;;;;;1.98;0.30;;;10.30;99.90;;;;;;5118081;28;20473;-58
2023/11/01 04:44:52;;;;;;;0.70;0.20;;;10.20;99.90;;;;;;5118321;28;20775;-58
2023/11/01 04:47:19;;;;;;;1.05;0.25;;;10.20;99.90;;;;;;5118100;28;20486;-58
2023/11/01 04:49:46;;;;;;;0.40;0.20;;;10.20;99.90;;;;;;5118642;28;20412;-59
2023/11/01 04:52:13;;;;;;;1.40;0.20;;;10.20;99.90;;;;;;5118702;28;20416;-58
2023/11/01 04:54:40;;;;;;;1.50;0.20;;;10.30;99.90;;;;;;5117700;28;20408;-58
2023/11/01 04:57:07;;;;;;;0.50;0.20;;;10.20;99.90;;;;;;5116965;28;20481;-59
2023/11/01 04:59:35;;;;;;;0.50;0.20;;;10.20;99.90;;;;;;5117735;28;20853;-59
2023/11/01 05:02:02;;;;;;;1.10;0.20;;;10.20;99.90;;;;;;5117492;28;20439;-58
2023/11/01 05:04:29;;;;;;;0.60;0.30;;;10.20;99.90;;;;;;5117550;28;20473;-58
2023/11/01 05:06:56;;;;;;;0.80;0.30;;;10.20;99.90;;;;;;5117002;28;20503;-58
2023/11/01 05:09:23;;;;;;;0.80;0.20;;;10.20;99.90;;;;;;5116845;28;20465;-58
2023/11/01 05:11:51;;;;;;;1.00;0.20;;;10.20;99.90;;;;;;5117016;28;20420;-58
2023/11/01 05:14:18;;;;;;;0.60;0.20;;;10.10;99.90;;;;;;5117319;28;20489;-58
2023/11/01 05:16:47;;;;;;;0.50;0.20;;;10.10;99.90;;;;;;5117607;28;20420;-58
2023/11/01 05:19:16;;;;;;;0.70;0.20;;;10.10;99.90;;;;;;5116833;28;20416;-58
2023/11/01 05:21:43;;;;;;;0.40;0.20;;;10.20;99.90;;;;;;5116412;28;20754;-58
2023/11/01 05:24:10;;;;;;;0.60;0.20;;;10.20;99.90;;;;;;5117212;28;20495;-58
2023/11/01 05:26:37;;;;;;;2.20;0.20;;;10.20;99.90;;;;;;5117090;28;20424;-58
2023/11/01 05:29:05;;;;;;;0.88;0.22;;;10.20;99.90;;;;;;5117066;28;20476;-58
2023/11/01 05:31:32;;;;;;;0.50;0.20;;;10.20;99.90;;;;;;5115783;28;20420;-58
2023/11/01 05:34:02;;;;;;;0.40;0.20;;;10.30;99.90;;;;;;5115258;28;20796;-59
2023/11/01 05:36:29;;;;;;;0.47;0.20;;;10.30;99.90;;;;;;5116196;28;20416;-59
2023/11/01 05:38:56;;;;;;;0.75;0.30;;;10.30;99.90;;;;;;5116745;28;20855;-58
2023/11/01 05:41:24;;;;;;;0.70;0.30;;;10.20;99.90;;;;;;5116819;28;20432;-59
2023/11/01 05:43:50;;;;;;;0.65;0.20;;;10.20;99.90;;;;;;5114982;28;20459;-59
2023/11/01 05:46:21;;;;;;;0.90;0.20;;;10.20;99.90;;;;;;5116409;28;20424;-59
2023/11/01 05:48:48;;;;;;;0.52;0.20;;;10.20;99.90;;;;;;5117572;28;20418;-58
2023/11/01 05:51:17;;;;;;;0.40;0.20;;;10.20;99.90;;;;;;5116758;28;20880;-58
2023/11/01 05:53:44;;;;;;;0.80;0.30;;;10.20;99.90;;;;;;5115664;28;20492;-58
2023/11/01 05:56:11;;;;;;;0.30;0.20;;;10.30;99.90;;;;;;5114466;28;20447;-58
2023/11/01 05:58:38;;;;;;;1.08;0.20;;;10.20;99.90;;;;;;5114923;28;20469;-59
2023/11/01 06:01:07;;;;;;;0.50;0.20;;;10.20;99.90;;;;;;5114795;28;20432;-58
2023/11/01 06:03:34;;;;;;;0.40;0.20;;;10.10;99.90;;;;;;5115464;28;20448;-58
2023/11/01 06:06:01;;;;;;;0.40;0.20;;;10.20;99.90;;;;;;5115520;28;20416;-58
2023/11/01 06:08:29;;;;;;;0.85;0.20;;;10.20;99.90;;;;;;5115834;28;20481;-58
2023/11/01 06:10:56;;;;;;;1.30;0.20;;;10.10;99.90;;;;;;5116358;28;20416;-58
2023/11/01 06:13:23;;;;;;;0.80;0.20;;;10.00;99.90;;;;;;5116953;28;20420;-58
2023/11/01 06:15:51;;;;;;;0.40;0.20;;;10.00;99.90;;;;;;5116158;28;20473;-58
2023/11/01 06:18:19;;;;;;;1.00;0.20;;;10.00;99.90;;;;;;5116357;28;20473;-58
2023/11/01 06:20:46;;;;;;;0.40;0.20;;;10.00;99.90;;;;;;5115197;28;20432;-59
2023/11/01 06:23:13;;;;;;;0.80;0.20;;;10.00;99.90;;;;;;5116351;28;20420;-59
2023/11/01 06:25:41;;;;;;;0.60;0.20;;;10.00;99.90;;;;;;5116052;28;20777;-59
2023/11/01 06:28:09;;;;;;;0.80;0.20;;;10.00;99.90;;;;;;5116232;28;20434;-58
2023/11/01 06:30:36;;;;;;;1.20;0.30;;;10.00;99.90;;;;;;5116199;28;20408;-58
2023/11/01 06:33:03;;;;;;;0.50;0.20;;;9.90;99.90;;;;;;5116158;28;20428;-59
2023/11/01 06:35:31;;;;;;;0.70;0.30;;;10.00;99.90;;;;;;5115898;28;20420;-58
2023/11/01 06:37:58;;;;;;;0.60;0.30;;;10.00;99.90;;;;;;5116061;28;20431;-58
2023/11/01 06:40:24;;;;;;;0.60;0.20;;;10.00;99.90;;;;;;5115669;28;20432;-58
2023/11/01 06:42:53;;;;;;;0.50;0.20;;;10.10;99.90;;;;;;5115810;28;20778;-58
2023/11/01 06:45:20;;;;;;;1.00;0.20;;;10.10;99.90;;;;;;5116533;28;20812;-58
2023/11/01 06:47:48;;;;;;;0.70;0.30;;;10.10;99.90;;;;;;5115374;28;20422;-58
2023/11/01 06:50:15;;;;;;;0.57;0.28;;;10.10;99.90;;;;;;5115446;28;20529;-58
2023/11/01 06:52:44;;;;;;;1.50;0.20;;;10.10;99.90;;;;;;5115184;28;20489;-58
2023/11/01 06:55:12;;;;;;;1.40;0.30;;;10.10;99.90;;;;;;5114255;28;20774;-58
2023/11/01 06:57:39;;;;;;;0.90;0.20;;;10.10;99.90;;;;;;5114506;28;20416;-58
2023/11/01 07:00:08;;;;;;;0.40;0.20;;;10.10;99.90;;;;;;5114957;28;20435;-58
2023/11/01 07:02:35;;;;;;;0.50;0.20;;;10.10;99.90;;;;;;5115245;28;20457;-58
2023/11/01 07:05:04;;;;;;;0.50;0.20;;;10.20;99.90;;;;;;5114951;28;20542;-59
2023/11/01 07:07:31;;;;;;;0.60;0.20;;;10.20;99.90;;;;;;5115245;28;20835;-59
2023/11/01 07:09:59;;;;;;;0.40;0.20;;;10.40;99.90;;;;;;5114855;28;20413;-58
2023/11/01 07:12:26;;;;;;;0.60;0.30;;;10.40;99.90;;;;;;5115120;28;20811;-58
2023/11/01 07:14:53;;;;;;;0.60;0.30;;;10.30;99.90;;;;;;5115748;28;20424;-58
2023/11/01 07:17:24;;;;;;;0.50;0.20;;;10.30;99.90;;;;;;5115052;28;20420;-59
2023/11/01 07:19:51;;;;;;;2.20;0.30;;;10.20;99.90;;;;;;5114636;28;20455;-59
2023/11/01 07:22:18;;;;;;;0.50;0.30;;;10.30;99.90;;;;;;5114193;28;20420;-58
2023/11/01 07:24:45;;;;;;;0.60;0.30;;;10.30;99.90;;;;;;5114275;28;20904;-58
2023/11/01 07:27:11;;;;;;;0.52;0.20;;;10.30;99.90;;;;;;5115024;28;20473;-58
2023/11/01 07:29:38;;;;;;;1.43;0.20;;;10.30;99.90;;;;;;5114920;28;20420;-58
2023/11/01 07:32:06;;;;;;;0.90;0.30;;;10.30;99.90;;;;;;5114237;28;20489;-58
2023/11/01 07:34:34;;;;;;;1.10;0.30;;;10.30;99.90;;;;;;5124180;27;20490;-58
2023/11/01 07:37:01;;;;;;;0.90;0.28;;;10.40;99.90;;;;;;5133243;27;20411;-58
2023/11/01 07:39:28;;;;;;;0.80;0.20;;;10.40;99.90;;;;;;5132358;27;20467;-59
2023/11/01 07:41:55;;;;;;;0.50;0.20;;;10.40;99.90;;;;;;5131755;27;20429;-58
2023/11/01 07:44:22;;;;;;;0.85;0.28;;;10.50;99.90;;;;;;5131656;27;20467;-58
2023/11/01 07:46:49;;;;;;;0.90;0.20;;;10.50;99.90;;;;;;5131264;27;20421;-58
2023/11/01 07:49:16;;;;;;;1.27;0.30;;;10.50;99.90;;;;;;5131750;27;20418;-58
2023/11/01 07:51:45;;;;;;;1.10;0.20;;;10.50;99.90;;;;;;5132482;27;20470;-58
2023/11/01 07:54:14;;;;;;;0.40;0.20;;;10.60;99.90;;;;;;5133584;27;20467;-59
2023/11/01 07:56:41;;;;;;;0.60;0.20;;;10.70;98.50;;;;;;5134833;27;20525;-59
2023/11/01 07:59:08;;;;;;;0.60;0.20;;;10.70;88.10;;;;;;5134345;27;20762;-59
2023/11/01 08:01:36;;;;;;;0.40;0.20;;;10.80;95.80;;;;;;5132734;27;20441;-58
2023/11/01 08:04:03;;;;;;;0.40;0.20;;;10.90;80.50;;;;;;5133388;27;20579;-58
2023/11/01 08:06:30;;;;;;;0.50;0.20;;;11.00;75.40;;;;;;5134290;27;20414;-58
2023/11/01 08:08:58;;;;;;;1.10;0.20;;;11.20;82.30;;;;;;5134565;27;20418;-58
2023/11/01 08:11:26;;;;;;;0.40;0.20;;;11.30;63.70;;;;;;5134219;27;20741;-58
2023/11/01 08:13:53;;;;;;;1.33;0.20;;;11.40;61.30;;;;;;5134986;28;20429;-58
2023/11/01 08:16:20;;;;;;;1.00;0.20;;;11.40;51.60;;;;;;5133107;27;20791;-59
2023/11/01 08:18:47;;;;;;;0.80;0.20;;;11.40;48.00;;;;;;5134772;27;20454;-59
2023/11/01 08:21:14;;;;;;;1.80;0.20;;;11.50;53.50;;;;;;5134372;27;20495;-59
2023/11/01 08:23:41;;;;;;;0.40;0.20;;;11.60;44.30;;;;;;5134760;27;20422;-58
2023/11/01 08:26:15;;;;;;;0.40;0.20;;;11.70;37.70;;;;;;5133587;27;20764;-58
2023/11/01 08:28:42;;;;;;;0.50;0.20;;;11.70;32.00;;;;;;5134795;27;20467;-59
2023/11/01 08:31:09;;;;;;;1.10;0.20;;;11.70;33.20;;;;;;5132751;27;20418;-58
2023/11/01 08:33:36;;;;;;;0.70;0.30;;;11.80;30.00;;;;;;5132195;27;20407;-58
2023/11/01 08:36:03;;;;;;;0.80;0.20;;;11.80;30.00;;;;;;5133180;27;20775;-58
2023/11/01 08:38:30;;;;;;;0.40;0.20;;;12.00;18.00;;;;;;5134038;27;20487;-57
2023/11/01 08:40:57;;;;;;;0.90;0.20;;;12.00;8.10;;;;;;5132747;27;20721;-57
2023/11/01 08:43:25;;;;;;;0.80;0.20;;;12.00;1.00;;;;;;5132698;27;20410;-57
2023/11/01 08:45:52;;;;;;;0.60;0.30;;;12.00;6.20;;;;;;5136239;27;20418;-57
2023/11/01 08:48:19;;;;;;;0.40;0.20;;;12.00;1.00;;;;;;5137097;27;20414;-60
2023/11/01 08:50:46;;;;;;;0.60;0.20;;;12.10;1.00;;;;;;5137326;27;20471;-60
2023/11/01 08:53:13;;;;;;;0.40;0.10;;;12.10;1.00;;;;;;5138203;27;20422;-60
2023/11/01 08:55:40;;;;;;;0.90;0.30;;;12.10;1.00;;;;;;5137773;27;20489;-60
2023/11/01 08:58:07;;;;;;;0.70;0.20;;;12.10;1.00;;;;;;5137608;27;20427;-60
2023/11/01 09:00:35;;;;;;;0.40;0.20;;;12.10;1.00;;;;;;5137700;27;20410;-60
2023/11/01 09:03:02;;;;;;;0.50;0.20;;;12.20;1.00;;;;;;5137380;27;20482;-60
2023/11/01 09:05:29;;;;;;;0.70;0.20;;;12.20;1.00;;;;;;5138411;27;20693;-61
2023/11/01 09:07:56;;;;;;;0.50;0.20;;;12.30;1.00;;;;;;5137265;27;20422;-60
2023/11/01 09:10:23;;;;;;;0.93;0.20;;;12.40;1.00;;;;;;5135472;27;20774;-60
2023/11/01 09:12:50;;;;;;;0.60;0.20;;;12.50;1.00;;;;;;5135418;27;20410;-61
2023/11/01 09:15:18;;;;;;;0.40;0.30;;;12.60;1.00;;;;;;5135150;27;20421;-58
2023/11/01 09:17:47;;;;;;;0.57;0.30;;;12.70;1.00;;;;;;5135465;27;20418;-59
2023/11/01 09:20:14;;;;;;;0.80;0.20;;;12.80;1.00;;;;;;5135937;27;20756;-58
2023/11/01 09:22:41;;;;;;;1.23;0.20;;;12.90;1.00;;;;;;5137750;27;20434;-58
2023/11/01 09:25:09;;;;;;;0.30;0.20;;;12.90;1.00;;;;;;5137665;27;20486;-58
2023/11/01 09:27:36;;;;;;;0.40;0.20;;;13.10;1.00;;;;;;5137361;27;20450;-59
2023/11/01 09:30:04;;;;;;;0.50;0.20;;;13.20;1.00;;;;;;5138176;27;20431;-59
2023/11/01 09:32:31;;;;;;;0.40;0.20;;;13.30;1.00;;;;;;5137223;27;20513;-58
2023/11/01 09:34:59;;;;;;;0.50;0.20;;;13.40;1.00;;;;;;5137173;27;20472;-58
2023/11/01 09:37:26;;;;;;;1.10;0.40;;;13.40;1.00;;;;;;5135867;27;20423;-58
2023/11/01 09:39:53;;;;;;;1.40;0.20;;;13.50;1.00;;;;;;5136757;27;20413;-59
2023/11/01 09:42:23;;;;;;;0.93;0.20;;;13.60;1.00;;;;;;5136932;27;20701;-58
2023/11/01 09:44:57;;;;;;;0.80;0.20;;;13.70;1.00;;;;;;5135724;27;20469;-59
2023/11/01 09:47:25;;;;;;;0.63;0.10;;;13.90;1.00;;;;;;5134304;27;20430;-59
2023/11/01 09:49:54;;;;;;;0.30;0.10;;;14.00;1.00;;;;;;5135847;27;20833;-59
2023/11/01 09:52:22;;;;;;;0.55;0.20;;;14.00;1.00;;;;;;5135295;27;20414;-58
2023/11/01 09:54:49;;;;;;;0.95;0.20;;;14.10;1.00;;;;;;5134713;27;20830;-59
2023/11/01 09:57:18;;;;;;;0.40;0.20;;;14.20;1.00;;;;;;5135200;27;20475;-59
2023/11/01 09:59:46;;;;;;;0.47;0.20;;;14.30;1.00;;;;;;5136492;27;20486;-60
2023/11/01 10:02:13;;;;;;;0.40;0.20;;;14.40;99.90;;;;;;5135385;27;20522;-59
2023/11/01 10:04:40;;;;;;;0.40;0.20;;;14.40;99.90;;;;;;5135979;27;20490;-59
2023/11/01 10:07:08;;;;;;;1.10;0.20;;;14.50;86.70;;;;;;5136996;27;20418;-60
2023/11/01 10:09:36;;;;;;;0.50;0.20;;;14.60;1.00;;;;;;5135212;27;20422;-59
2023/11/01 10:12:08;;;;;;;0.50;0.10;;;14.60;1.00;;;;;;5136953;27;20708;-59
2023/11/01 10:14:36;;;;;;;0.60;0.20;;;14.60;1.00;;;;;;5135330;27;20423;-60
2023/11/01 10:17:05;;;;;;;0.40;0.10;;;14.60;99.90;;;;;;5134375;27;20414;-60
2023/11/01 10:19:32;;;;;;;0.50;0.20;;;14.70;1.00;;;;;;5134409;27;20513;-59
2023/11/01 10:21:59;;;;;;;1.20;0.20;;;14.70;99.90;;;;;;5134680;27;20499;-59
2023/11/01 10:24:26;;;;;;;0.50;0.10;;;14.80;1.00;;;;;;5134607;27;20718;-58
2023/11/01 10:26:56;;;;;;;1.00;0.20;;;14.80;1.00;;;;;;5134527;27;20418;-59
2023/11/01 10:29:23;;;;;;;0.30;0.10;;;14.80;99.90;;;;;;5135050;27;20422;-59
2023/11/01 10:31:55;;;;;;;0.60;0.20;;;14.90;8.20;;;;;;5135685;27;20454;-60
2023/11/01 10:34:28;;;;;;;0.40;0.17;;;14.90;99.90;;;;;;5134170;27;20418;-59
2023/11/01 10:36:57;;;;;;;1.00;0.20;;;15.00;1.00;;;;;;5135342;27;20402;-60
2023/11/01 10:39:25;;;;;;;0.40;0.20;;;15.10;99.90;;;;;;5136091;27;20407;-60
2023/11/01 10:41:55;;;;;;;1.10;0.20;;;15.10;1.00;;;;;;5135426;27;20439;-59
2023/11/01 10:44:25;;;;;;;0.60;0.20;;;15.20;1.00;;;;;;5135574;27;20430;-60
2023/11/01 10:46:52;;;;;;;0.40;0.10;;;15.30;1.00;;;;;;5134235;27;20493;-59
2023/11/01 10:49:21;;;;;;;0.60;0.20;;;15.40;1.00;;;;;;5135332;27;20447;-60
2023/11/01 10:51:48;;;;;;;0.90;0.20;;;15.40;99.90;;;;;;5134909;27;20860;-60
2023/11/01 10:54:17;;;;;;;0.40;0.20;;;15.50;99.90;;;;;;5133836;27;20503;-60
2023/11/01 10:56:45;;;;;;;0.85;0.30;;;15.60;1.00;;;;;;5135749;27;20726;-59
2023/11/01 10:59:24;;;;;;;0.40;0.15;;;15.70;1.00;;;;;;5134151;27;20422;-59
2023/11/01 11:01:57;;;;;;;0.70;0.20;;;15.80;99.90;;;;;;5133334;27;20487;-60
2023/11/01 11:04:31;;;;;;;1.00;0.20;;;15.80;1.00;;;;;;5133063;27;20415;-59
2023/11/01 11:07:07;;;;;;;0.35;0.17;;;16.00;99.90;;;;;;5132959;27;20781;-60
2023/11/01 11:09:34;;;;;;;0.40;0.10;;;16.00;1.00;;;;;;5133936;27;20422;-60
2023/11/01 11:12:19;;;;;;;0.40;0.10;;;16.00;99.90;;;;;;5134068;27;20829;-59
2023/11/01 11:14:48;;;;;;;0.30;0.17;;;16.00;99.90;;;;;;5134606;27;20422;-60
2023/11/01 11:17:17;;;;;;;0.35;0.10;;;16.10;99.90;;;;;;5134223;27;20430;-60
2023/11/01 11:20:12;;;;;;;0.30;0.10;;;16.10;1.00;;;;;;5133741;27;20414;-60
2023/11/01 11:23:13;;;;;;;0.70;0.27;;;16.20;99.90;;;;;;5133022;27;20437;-59
2023/11/01 11:25:51;;;;;;;0.60;0.40;;;16.20;99.90;;;;;;5126405;27;20849;-59
2023/11/01 11:28:40;;;;;;;0.50;0.20;;;16.10;99.90;;;;;;5133609;27;20430;-60
2023/11/01 11:31:12;;;;;;;0.50;0.20;;;16.20;99.90;;;;;;5133742;27;20517;-60
2023/11/01 11:33:55;;;;;;;0.40;0.20;;;16.30;99.90;;;;;;5133915;27;20470;-59
2023/11/01 11:36:23;;;;;;;0.70;0.20;;;16.40;1.00;;;;;;5131949;27;20402;-60
2023/11/01 11:38:52;;;;;;;0.38;0.13;;;16.40;1.00;;;;;;5133371;27;20726;-61
2023/11/01 11:41:20;;;;;;;0.40;0.20;;;16.40;1.00;;;;;;5134692;27;20422;-59
2023/11/01 11:44:07;;;;;;;0.70;0.30;;;16.50;1.00;;;;;;5134731;27;20426;-60
2023/11/01 11:46:39;;;;;;;0.60;0.20;;;16.40;1.00;;;;;;5134720;27;20429;-60
2023/11/01 11:49:07;;;;;;;0.60;0.20;;;16.30;8.60;;;;;;5134515;27;20718;-59
2023/11/01 11:51:35;;;;;;;0.50;0.20;;;16.20;1.00;;;;;;5134205;27;20459;-60
2023/11/01 11:54:13;;;;;;;0.82;0.20;;;16.20;99.90;;;;;;5134609;27;20433;-60
2023/11/01 11:56:41;;;;;;;0.40;0.10;;;16.20;23.60;;;;;;5133649;27;20423;-60
2023/11/01 11:59:09;;;;;;;0.40;0.20;;;16.10;99.90;;;;;;5134058;27;20729;-60
2023/11/01 12:01:37;;;;;;;1.10;0.20;;;16.00;99.90;;;;;;5134667;27;20466;-60
2023/11/01 12:04:07;;;;;;;0.90;0.20;;;16.10;1.00;;;;;;5132944;27;20422;-60
2023/11/01 12:06:45;;;;;;;0.50;0.20;;;16.20;99.90;;;;;;5132382;27;20576;-60
2023/11/01 12:09:18;;;;;;;0.40;0.20;;;16.10;99.90;;;;;;5133763;27;20442;-60
2023/11/01 12:11:50;;;;;;;0.50;0.20;;;16.10;1.00;;;;;;5133741;27;20478;-61
2023/11/01 12:14:19;;;;;;;0.50;0.20;;;16.20;1.00;;;;;;5133297;27;20445;-60
2023/11/01 12:16:47;;;;;;;0.50;0.20;;;16.40;99.90;;;;;;5133954;27;20472;-60
2023/11/01 12:19:18;;;;;;;0.47;0.20;;;16.50;99.90;;;;;;5134325;27;20422;-60
2023/11/01 12:21:47;;;;;;;0.40;0.20;;;16.60;1.00;;;;;;5138258;27;20431;-59
2023/11/01 12:24:15;;;;;;;0.57;0.30;;;16.80;1.00;;;;;;5137101;27;20417;-60
2023/11/01 12:26:59;;;;;;;0.60;0.30;;;16.80;1.00;;;;;;5137277;27;20466;-60
2023/11/01 12:29:42;;;;;;;1.00;0.20;;;16.90;1.00;;;;;;5137369;27;20557;-59
2023/11/01 12:32:11;;;;;;;1.35;0.20;;;16.80;1.00;;;;;;5134084;27;20472;-60
2023/11/01 12:34:40;;;;;;;0.60;0.30;;;16.80;1.00;;;;;;5137314;27;20418;-60
2023/11/01 12:37:10;;;;;;;0.43;0.20;;;16.90;1.00;;;;;;5136429;27;20495;-60
2023/11/01 12:39:38;;;;;;;0.50;0.30;;;16.80;1.00;;;;;;5136733;27;20521;-60
2023/11/01 12:42:25;;;;;;;0.40;0.20;;;16.60;36.60;;;;;;5139018;27;20526;-60
2023/11/01 12:44:54;;;;;;;1.00;0.20;;;16.50;99.90;;;;;;5137897;27;20425;-59
2023/11/01 12:47:24;;;;;;;1.30;0.20;;;16.40;99.90;;;;;;5137191;27;20457;-60
2023/11/01 12:49:52;;;;;;;1.10;0.20;;;16.40;1.00;;;;;;5137877;27;20426;-60
2023/11/01 12:52:19;;;;;;;0.50;0.20;;;16.40;1.00;;;;;;5137876;27;20494;-60
2023/11/01 12:54:47;;;;;;;0.40;0.20;;;16.40;99.90;;;;;;5136784;27;20821;-59